Temp: 3.9°C   Baro: 1036.5mb
  Wind: 2.0mph   Dir: W (273°)
  Rain: 0.0mm (0.0mm/hr)
  Solar: 0W/m2  Hum: 84%

Historic data

Bath Spa Weather Station Historical Data
Daily Summary for December 12, 2019 Units:  Both    English   Metric
Daily Weekly Monthly Yearly Custom
  High: Low: Average:
Temperature: 49.8 °F /  9.9 °C 36.1 °F /  2.3 °C 44.7 °F /  7.1 °C
Dew Point: 48.2 °F /  9 °C 34.3 °F /  1.3 °C 42.4 °F /  5.8 °C
Humidity: 94% 87% 92%
Wind Speed: 19.4mph /  31.2km/h - 5.3mph /  8.5km/h
Wind Gust: 30mph /  48.3km/h - -
Wind- - SSW
Pressure: 29.63 in /  1003.3 hPa 28.72 in /  972.5 hPa -
Precipitation: 0.65 in /  16.51 mm    
Historical Graphs
 
 
Tabular Data for December 12, 2019
Time Temperature Dew Point Pressure Wind Wind Speed Wind Gust Humidity Rainfall Rate (Hourly) solar
00:09 36.3 °F /  2.4 °C 34.7 °F /  1.5 °C 29.63in /  1003.3hPa West 0.8mph /  1.3km/h 3mph /  4.8km/h 94% 0.00in /  0mm 0 W/m2
00:14 36.3 °F /  2.4 °C 34.7 °F /  1.5 °C 29.63in /  1003.3hPa West 0.4mph /  0.6km/h 3mph /  4.8km/h 94% 0.00in /  0mm 0 W/m2
00:19 36.4 °F /  2.4 °C 34.8 °F /  1.6 °C 29.63in /  1003.3hPa West 1.2mph /  1.9km/h 3mph /  4.8km/h 94% 0.00in /  0mm 0 W/m2
00:24 36.5 °F /  2.5 °C 34.9 °F /  1.6 °C 29.63in /  1003.3hPa West 0.4mph /  0.6km/h 3mph /  4.8km/h 94% 0.00in /  0mm 0 W/m2
00:29 36.9 °F /  2.7 °C 35.2 °F /  1.8 °C 29.63in /  1003.3hPa SSW 1.8mph /  2.9km/h 7mph /  11.3km/h 94% 0.00in /  0mm 0 W/m2
00:34 37 °F /  2.8 °C 35.4 °F /  1.9 °C 29.62in /  1002.9hPa SSW 0.4mph /  0.6km/h 4mph /  6.4km/h 94% 0.00in /  0mm 0 W/m2
00:39 37 °F /  2.8 °C 35.4 °F /  1.9 °C 29.62in /  1002.9hPa SSW 0.8mph /  1.3km/h 3mph /  4.8km/h 94% 0.00in /  0mm 0 W/m2
00:44 37 °F /  2.8 °C 35.4 °F /  1.9 °C 29.62in /  1002.9hPa SSW 1.2mph /  1.9km/h 3mph /  4.8km/h 94% 0.00in /  0mm 0 W/m2
00:49 37 °F /  2.8 °C 35.4 °F /  1.9 °C 29.62in /  1002.9hPa SSW 1.4mph /  2.3km/h 3mph /  4.8km/h 94% 0.00in /  0mm 0 W/m2
00:54 37 °F /  2.8 °C 35.4 °F /  1.9 °C 29.62in /  1002.9hPa SSW 2mph /  3.2km/h 4mph /  6.4km/h 94% 0.00in /  0mm 0 W/m2
00:59 37 °F /  2.8 °C 35.4 °F /  1.9 °C 29.61in /  1002.6hPa SSW 0.6mph /  1km/h 4mph /  6.4km/h 94% 0.00in /  0mm 0 W/m2
01:04 37 °F /  2.8 °C 35.4 °F /  1.9 °C 29.61in /  1002.6hPa SSW 0.2mph /  0.3km/h 2mph /  3.2km/h 94% 0.00in /  0mm 0 W/m2
01:09 37 °F /  2.8 °C 35.3 °F /  1.8 °C 29.61in /  1002.6hPa SSW 0.9mph /  1.4km/h 3mph /  4.8km/h 94% 0.00in /  0mm 0 W/m2
01:14 37 °F /  2.8 °C 35.4 °F /  1.9 °C 29.61in /  1002.6hPa SSW 1.2mph /  1.9km/h 4mph /  6.4km/h 94% 0.00in /  0mm 0 W/m2
01:19 37 °F /  2.8 °C 35.4 °F /  1.9 °C 29.60in /  1002.3hPa SW 0.5mph /  0.8km/h 4mph /  6.4km/h 94% 0.00in /  0mm 0 W/m2
01:24 37 °F /  2.8 °C 35.4 °F /  1.9 °C 29.60in /  1002.3hPa SW 1mph /  1.6km/h 4mph /  6.4km/h 94% 0.00in /  0mm 0 W/m2
01:29 37.1 °F /  2.8 °C 35.5 °F /  1.9 °C 29.60in /  1002.3hPa SW 1mph /  1.6km/h 4mph /  6.4km/h 94% 0.00in /  0mm 0 W/m2
01:34 37.2 °F /  2.9 °C 35.6 °F /  2 °C 29.60in /  1002.3hPa SW 0.4mph /  0.6km/h 3mph /  4.8km/h 94% 0.00in /  0mm 0 W/m2
01:39 37.2 °F /  2.9 °C 35.6 °F /  2 °C 29.60in /  1002.3hPa SW 0.6mph /  1km/h 2mph /  3.2km/h 94% 0.00in /  0mm 0 W/m2
01:44 37.2 °F /  2.9 °C 35.6 °F /  2 °C 29.60in /  1002.3hPa SW 0.4mph /  0.6km/h 2mph /  3.2km/h 94% 0.00in /  0mm 0 W/m2
01:49 37 °F /  2.8 °C 35.4 °F /  1.9 °C 29.60in /  1002.3hPa SW 0.4mph /  0.6km/h 3mph /  4.8km/h 94% 0.00in /  0mm 0 W/m2
01:54 37 °F /  2.8 °C 35.3 °F /  1.8 °C 29.59in /  1001.9hPa SW 1.2mph /  1.9km/h 2mph /  3.2km/h 94% 0.00in /  0mm 0 W/m2
01:59 36.9 °F /  2.7 °C 35.2 °F /  1.8 °C 29.59in /  1001.9hPa SW 0.9mph /  1.4km/h 3mph /  4.8km/h 93.8% 0.00in /  0mm 0 W/m2
02:04 36.7 °F /  2.6 °C 35 °F /  1.7 °C 29.59in /  1001.9hPa SW 1.2mph /  1.9km/h 3mph /  4.8km/h 93.4% 0.00in /  0mm 0 W/m2
02:09 36.5 °F /  2.5 °C 34.9 °F /  1.6 °C 29.59in /  1001.9hPa SW 2.4mph /  3.9km/h 5mph /  8km/h 93.6% 0.00in /  0mm 0 W/m2
02:14 36.6 °F /  2.6 °C 35 °F /  1.7 °C 29.59in /  1001.9hPa Calm   5mph /  8km/h 93.8% 0.00in /  0mm 0 W/m2
02:19 36.5 °F /  2.5 °C 34.8 °F /  1.6 °C 29.58in /  1001.6hPa SW 0.4mph /  0.6km/h 2mph /  3.2km/h 93.4% 0.00in /  0mm 0 W/m2
02:24 36.5 °F /  2.5 °C 34.7 °F /  1.5 °C 29.58in /  1001.6hPa SW 1.5mph /  2.4km/h 3mph /  4.8km/h 93% 0.00in /  0mm 0 W/m2
02:29 36.4 °F /  2.4 °C 34.6 °F /  1.4 °C 29.58in /  1001.6hPa SW 0.4mph /  0.6km/h 3mph /  4.8km/h 93% 0.00in /  0mm 0 W/m2
02:34 36.2 °F /  2.3 °C 34.4 °F /  1.3 °C 29.57in /  1001.2hPa SW 1.6mph /  2.6km/h 4mph /  6.4km/h 93% 0.00in /  0mm 0 W/m2
02:39 36.2 °F /  2.3 °C 34.4 °F /  1.3 °C 29.56in /  1000.9hPa SW 0.4mph /  0.6km/h 4mph /  6.4km/h 93% 0.00in /  0mm 0 W/m2
02:44 36.1 °F /  2.3 °C 34.3 °F /  1.3 °C 29.56in /  1000.9hPa SW 0.5mph /  0.8km/h 4mph /  6.4km/h 93% 0.00in /  0mm 0 W/m2
02:49 36.2 °F /  2.3 °C 34.4 °F /  1.3 °C 29.55in /  1000.6hPa SW 2.8mph /  4.5km/h 5mph /  8km/h 93% 0.00in /  0mm 0 W/m2
02:54 36.3 °F /  2.4 °C 34.5 °F /  1.4 °C 29.55in /  1000.6hPa SW 1.6mph /  2.6km/h 4mph /  6.4km/h 93% 0.00in /  0mm 0 W/m2
02:59 36.6 °F /  2.6 °C 34.8 °F /  1.6 °C 29.55in /  1000.6hPa SW 1.4mph /  2.3km/h 5mph /  8km/h 93% 0.00in /  0mm 0 W/m2
03:04 36.9 °F /  2.7 °C 35.1 °F /  1.7 °C 29.55in /  1000.6hPa SW 1.5mph /  2.4km/h 5mph /  8km/h 93% 0.00in /  0mm 0 W/m2
03:09 37 °F /  2.8 °C 35.2 °F /  1.8 °C 29.54in /  1000.2hPa SW 2mph /  3.2km/h 6mph /  9.7km/h 93% 0.01in /  0.25mm 0 W/m2
03:14 37.5 °F /  3.1 °C 35.7 °F /  2.1 °C 29.54in /  1000.2hPa SW 1.2mph /  1.9km/h 5mph /  8km/h 93% 0.01in /  0.25mm 0 W/m2
03:19 37.7 °F /  3.2 °C 35.9 °F /  2.2 °C 29.53in /  999.9hPa SSW 2.4mph /  3.9km/h 7mph /  11.3km/h 93% 0.01in /  0.25mm 0 W/m2
03:24 37.9 °F /  3.3 °C 36.1 °F /  2.3 °C 29.53in /  999.9hPa SSW 2.4mph /  3.9km/h 7mph /  11.3km/h 93% 0.01in /  0.25mm 0 W/m2
03:29 38.1 °F /  3.4 °C 36.2 °F /  2.3 °C 29.53in /  999.9hPa SSW 0.4mph /  0.6km/h 3mph /  4.8km/h 92.6% 0.01in /  0.25mm 0 W/m2
03:34 37.9 °F /  3.3 °C 35.8 °F /  2.1 °C 29.53in /  999.9hPa SSW 2mph /  3.2km/h 6mph /  9.7km/h 92% 0.01in /  0.25mm 0 W/m2
03:39 37.9 °F /  3.3 °C 35.8 °F /  2.1 °C 29.52in /  999.5hPa SSW 2.5mph /  4km/h 7mph /  11.3km/h 92% 0.01in /  0.25mm 0 W/m2
03:44 38.1 °F /  3.4 °C 36 °F /  2.2 °C 29.52in /  999.5hPa SSW 1.9mph /  3.1km/h 7mph /  11.3km/h 92% 0.01in /  0.25mm 0 W/m2
03:49 38.3 °F /  3.5 °C 36 °F /  2.2 °C 29.52in /  999.5hPa South 2.9mph /  4.7km/h 6mph /  9.7km/h 91.4% 0.01in /  0.25mm 0 W/m2
03:54 38.4 °F /  3.6 °C 36.1 °F /  2.3 °C 29.51in /  999.2hPa South 1.2mph /  1.9km/h 7mph /  11.3km/h 91% 0.01in /  0.25mm 0 W/m2
03:59 38.5 °F /  3.6 °C 36.1 °F /  2.3 °C 29.51in /  999.2hPa South 2.2mph /  3.5km/h 7mph /  11.3km/h 91% 0.01in /  0.25mm 0 W/m2
04:03 38.5 °F /  3.6 °C 35.8 °F /  2.1 °C 29.50in /  998.9hPa South 2.5mph /  4km/h 6mph /  9.7km/h 90% 0.01in /  0.25mm 0 W/m2
04:09 38.7 °F /  3.7 °C 36 °F /  2.2 °C 29.50in /  998.9hPa South 5mph /  8km/h 9mph /  14.5km/h 90% 0.01in /  0.25mm 0 W/m2
04:14 38.7 °F /  3.7 °C 36 °F /  2.2 °C 29.49in /  998.5hPa South 3.8mph /  6.1km/h 8mph /  12.9km/h 89.6% 0.00in /  0mm 0 W/m2
04:19 38.8 °F /  3.8 °C 36 °F /  2.2 °C 29.49in /  998.5hPa South 3.9mph /  6.3km/h 7mph /  11.3km/h 89% 0.00in /  0mm 0 W/m2
04:24 39 °F /  3.9 °C 36 °F /  2.2 °C 29.49in /  998.5hPa SSE 3.7mph /  6km/h 8mph /  12.9km/h 88.8% 0.00in /  0mm 0 W/m2
04:29 39.2 °F /  4 °C 36 °F /  2.2 °C 29.49in /  998.5hPa SSE 3.9mph /  6.3km/h 8mph /  12.9km/h 88% 0.00in /  0mm 0 W/m2
04:34 39.1 °F /  3.9 °C 35.9 °F /  2.2 °C 29.48in /  998.2hPa South 2.4mph /  3.9km/h 7mph /  11.3km/h 88% 0.00in /  0mm 0 W/m2
04:39 39 °F /  3.9 °C 35.4 °F /  1.9 °C 29.48in /  998.2hPa South 2.6mph /  4.2km/h 6mph /  9.7km/h 87% 0.00in /  0mm 0 W/m2
04:44 39 °F /  3.9 °C 35.4 °F /  1.9 °C 29.48in /  998.2hPa South 1.8mph /  2.9km/h 7mph /  11.3km/h 87% 0.00in /  0mm 0 W/m2
04:48 38.8 °F /  3.8 °C 35.2 °F /  1.8 °C 29.47in /  997.9hPa Calm   1mph /  1.6km/h 87% 0.00in /  0mm 0 W/m2
04:54 38.8 °F /  3.8 °C 35.2 °F /  1.8 °C 29.47in /  997.9hPa South 1mph /  1.6km/h 3mph /  4.8km/h 87% 0.00in /  0mm 0 W/m2
04:59 38.7 °F /  3.7 °C 35.1 °F /  1.7 °C 29.46in /  997.5hPa Calm   3mph /  4.8km/h 87% 0.00in /  0mm 0 W/m2
05:04 38.6 °F /  3.7 °C 35 °F /  1.7 °C 29.46in /  997.5hPa South 0.4mph /  0.6km/h 2mph /  3.2km/h 87% 0.00in /  0mm 0 W/m2
05:09 38.5 °F /  3.6 °C 34.9 °F /  1.6 °C 29.46in /  997.5hPa Calm   2mph /  3.2km/h 87% 0.00in /  0mm 0 W/m2
05:14 38.5 °F /  3.6 °C 34.9 °F /  1.6 °C 29.45in /  997.2hPa South 0.6mph /  1km/h 4mph /  6.4km/h 87% 0.00in /  0mm 0 W/m2
05:19 38.7 °F /  3.7 °C 35.1 °F /  1.7 °C 29.45in /  997.2hPa Calm   4mph /  6.4km/h 87% 0.00in /  0mm 0 W/m2
05:24 38.7 °F /  3.7 °C 35.3 °F /  1.8 °C 29.45in /  997.2hPa Calm   2mph /  3.2km/h 87.6% 0.00in /  0mm 0 W/m2
05:29 38.7 °F /  3.7 °C 35.4 °F /  1.9 °C 29.44in /  996.8hPa South 0.8mph /  1.3km/h 3mph /  4.8km/h 88% 0.00in /  0mm 0 W/m2
05:34 38.7 °F /  3.7 °C 35.4 °F /  1.9 °C 29.44in /  996.8hPa Calm   2mph /  3.2km/h 88% 0.00in /  0mm 0 W/m2
05:39 38.8 °F /  3.8 °C 35.6 °F /  2 °C 29.43in /  996.5hPa South 2.4mph /  3.9km/h 5mph /  8km/h 88% 0.00in /  0mm 0 W/m2
05:44 38.8 °F /  3.8 °C 35.6 °F /  2 °C 29.43in /  996.5hPa South 2.4mph /  3.9km/h 7mph /  11.3km/h 88% 0.00in /  0mm 0 W/m2
05:49 39 °F /  3.9 °C 35.8 °F /  2.1 °C 29.42in /  996.2hPa SSE 1.4mph /  2.3km/h 5mph /  8km/h 88% 0.00in /  0mm 0 W/m2
05:54 39.2 °F /  4 °C 36 °F /  2.2 °C 29.41in /  995.8hPa SSE 1.6mph /  2.6km/h 6mph /  9.7km/h 88% 0.00in /  0mm 0 W/m2
05:59 39.4 °F /  4.1 °C 36.5 °F /  2.5 °C 29.41in /  995.8hPa SSE 3.3mph /  5.3km/h 8mph /  12.9km/h 89% 0.01in /  0.25mm 0 W/m2
06:04 39.6 °F /  4.2 °C 36.5 °F /  2.5 °C 29.40in /  995.5hPa SE 2.8mph /  4.5km/h 9mph /  14.5km/h 89% 0.01in /  0.25mm 0 W/m2
06:09 39.7 °F /  4.3 °C 36.6 °F /  2.6 °C 29.40in /  995.5hPa ESE 4.2mph /  6.8km/h 9mph /  14.5km/h 89% 0.01in /  0.25mm 0 W/m2
06:14 39.8 °F /  4.3 °C 36.9 °F /  2.7 °C 29.39in /  995.1hPa SE 4.8mph /  7.7km/h 10mph /  16.1km/h 89.4% 0.01in /  0.25mm 0 W/m2
06:19 40.2 °F /  4.6 °C 37.4 °F /  3 °C 29.39in /  995.1hPa SE 5.4mph /  8.7km/h 9mph /  14.5km/h 89.8% 0.01in /  0.25mm 0 W/m2
06:24 40.5 °F /  4.7 °C 37.8 °F /  3.2 °C 29.38in /  994.8hPa SE 3.6mph /  5.8km/h 9mph /  14.5km/h 90% 0.01in /  0.25mm 0 W/m2
06:29 40.5 °F /  4.7 °C 37.8 °F /  3.2 °C 29.38in /  994.8hPa SE 3.6mph /  5.8km/h 9mph /  14.5km/h 90% 0.02in /  0.51mm 0 W/m2
06:34 40.6 °F /  4.8 °C 37.9 °F /  3.3 °C 29.37in /  994.5hPa SE 3.9mph /  6.3km/h 8mph /  12.9km/h 90% 0.02in /  0.51mm 0 W/m2
06:39 40.6 °F /  4.8 °C 37.9 °F /  3.3 °C 29.37in /  994.5hPa ESE 6.3mph /  10.1km/h 10mph /  16.1km/h 90% 0.02in /  0.51mm 0 W/m2
06:44 40.6 °F /  4.8 °C 37.9 °F /  3.3 °C 29.36in /  994.1hPa SE 4.9mph /  7.9km/h 9mph /  14.5km/h 90% 0.02in /  0.51mm 0 W/m2
06:49 40.8 °F /  4.9 °C 38.3 °F /  3.5 °C 29.36in /  994.1hPa SE 2.7mph /  4.3km/h 9mph /  14.5km/h 90.4% 0.02in /  0.51mm 0 W/m2
06:54 40.8 °F /  4.9 °C 38.5 °F /  3.6 °C 29.36in /  994.1hPa ESE 5mph /  8km/h 11mph /  17.7km/h 91% 0.02in /  0.51mm 0 W/m2
06:59 41.1 °F /  5.1 °C 38.7 °F /  3.7 °C 29.35in /  993.8hPa SE 3.5mph /  5.6km/h 9mph /  14.5km/h 91% 0.01in /  0.25mm 0 W/m2
07:04 41.1 °F /  5.1 °C 38.8 °F /  3.8 °C 29.34in /  993.5hPa SE 3.7mph /  6km/h 8mph /  12.9km/h 91% 0.01in /  0.25mm 0 W/m2
07:09 41.2 °F /  5.1 °C 38.8 °F /  3.8 °C 29.33in /  993.1hPa ESE 4.5mph /  7.2km/h 8mph /  12.9km/h 91% 0.01in /  0.25mm 0 W/m2
07:14 41.3 °F /  5.2 °C 39 °F /  3.9 °C 29.33in /  993.1hPa ESE 4.6mph /  7.4km/h 10mph /  16.1km/h 91.2% 0.01in /  0.25mm 0 W/m2
07:19 41.5 °F /  5.3 °C 39.4 °F /  4.1 °C 29.32in /  992.8hPa SE 4.2mph /  6.8km/h 10mph /  16.1km/h 92% 0.01in /  0.25mm 0 W/m2
07:24 41.8 °F /  5.4 °C 39.7 °F /  4.3 °C 29.32in /  992.8hPa SE 3.6mph /  5.8km/h 10mph /  16.1km/h 92% 0.01in /  0.25mm 0 W/m2
07:28 42.2 °F /  5.7 °C 40 °F /  4.4 °C 29.31in /  992.4hPa SSE 5.5mph /  8.9km/h 12mph /  19.3km/h 92% 0.01in /  0.25mm 0 W/m2
07:34 42.4 °F /  5.8 °C 40.3 °F /  4.6 °C 29.30in /  992.1hPa SE 9.4mph /  15.1km/h 15mph /  24.1km/h 92% 0.01in /  0.25mm 0 W/m2
07:39 42.8 °F /  6 °C 40.7 °F /  4.8 °C 29.29in /  991.8hPa SSE 7.4mph /  11.9km/h 13mph /  20.9km/h 92.2% 0.02in /  0.51mm 0 W/m2
07:44 43 °F /  6.1 °C 41.1 °F /  5.1 °C 29.29in /  991.8hPa SE 5.8mph /  9.3km/h 12mph /  19.3km/h 92.8% 0.02in /  0.51mm 0 W/m2
07:49 43.1 °F /  6.2 °C 41.3 °F /  5.2 °C 29.28in /  991.4hPa SE 3.3mph /  5.3km/h 10mph /  16.1km/h 93% 0.02in /  0.51mm 0 W/m2
07:54 43.4 °F /  6.3 °C 41.6 °F /  5.3 °C 29.28in /  991.4hPa SE 7mph /  11.3km/h 12mph /  19.3km/h 93% 0.03in /  0.76mm 0 W/m2
07:59 43.5 °F /  6.4 °C 41.7 °F /  5.4 °C 29.27in /  991.1hPa SE 5.9mph /  9.5km/h 13mph /  20.9km/h 93% 0.04in /  1.02mm 0 W/m2
08:04 43.7 °F /  6.5 °C 41.8 °F /  5.4 °C 29.27in /  991.1hPa SE 5.5mph /  8.9km/h 12mph /  19.3km/h 93% 0.04in /  1.02mm 0 W/m2
08:09 43.9 °F /  6.6 °C 41.9 °F /  5.5 °C 29.26in /  990.7hPa SE 5mph /  8km/h 11mph /  17.7km/h 93% 0.04in /  1.02mm 0 W/m2
08:14 44 °F /  6.7 °C 42.1 °F /  5.6 °C 29.25in /  990.4hPa SE 8.8mph /  14.2km/h 15mph /  24.1km/h 93% 0.04in /  1.02mm 0 W/m2
08:19 44.3 °F /  6.8 °C 42.4 °F /  5.8 °C 29.25in /  990.4hPa SE 7.8mph /  12.6km/h 14mph /  22.5km/h 93.2% 0.04in /  1.02mm 5 W/m2
08:24 44.6 °F /  7 °C 43 °F /  6.1 °C 29.25in /  990.4hPa SSE 11mph /  17.7km/h 18mph /  29km/h 93.8% 0.04in /  1.02mm 7 W/m2
08:29 44.9 °F /  7.2 °C 42.9 °F /  6.1 °C 29.24in /  990.1hPa SSE 10.6mph /  17.1km/h 19mph /  30.6km/h 93.2% 0.04in /  1.02mm 11 W/m2
08:34 45 °F /  7.2 °C 43 °F /  6.1 °C 29.24in /  990.1hPa SE 6.8mph /  10.9km/h 12mph /  19.3km/h 93% 0.03in /  0.76mm 14 W/m2
08:39 45 °F /  7.2 °C 43.1 °F /  6.2 °C 29.24in /  990.1hPa SSE 8.5mph /  13.7km/h 13mph /  20.9km/h 93% 0.03in /  0.76mm 16 W/m2
08:44 45.2 °F /  7.3 °C 43.6 °F /  6.4 °C 29.23in /  989.7hPa SSE 6mph /  9.7km/h 13mph /  20.9km/h 94% 0.03in /  0.76mm 23 W/m2
08:49 45.4 °F /  7.4 °C 43.8 °F /  6.6 °C 29.23in /  989.7hPa SE 7.6mph /  12.2km/h 17mph /  27.4km/h 94% 0.03in /  0.76mm 32 W/m2
08:54 45.8 °F /  7.7 °C 44.2 °F /  6.8 °C 29.22in /  989.4hPa SSE 8.6mph /  13.8km/h 13mph /  20.9km/h 94% 0.02in /  0.51mm 33 W/m2
08:59 45.9 °F /  7.7 °C 44.3 °F /  6.8 °C 29.21in /  989.1hPa SSE 5.2mph /  8.4km/h 14mph /  22.5km/h 94% 0.02in /  0.51mm 25 W/m2
09:04 46 °F /  7.8 °C 44.4 °F /  6.9 °C 29.21in /  989.1hPa SSE 7.1mph /  11.4km/h 15mph /  24.1km/h 94% 0.01in /  0.25mm 30 W/m2
09:08 46.3 °F /  7.9 °C 44.7 °F /  7.1 °C 29.21in /  989.1hPa SSE 11.3mph /  18.2km/h 18mph /  29km/h 94% 0.01in /  0.25mm 42 W/m2
09:14 46.4 °F /  8 °C 44.7 °F /  7.1 °C 29.20in /  988.7hPa SSE 7.8mph /  12.6km/h 14mph /  22.5km/h 93.8% 0.01in /  0.25mm 65 W/m2
09:19 46.6 °F /  8.1 °C 44.9 °F /  7.2 °C 29.20in /  988.7hPa SSE 9.8mph /  15.8km/h 17mph /  27.4km/h 93.8% 0.01in /  0.25mm 67 W/m2
09:24 46.6 °F /  8.1 °C 45 °F /  7.2 °C 29.19in /  988.4hPa South 6.6mph /  10.6km/h 12mph /  19.3km/h 94% 0.01in /  0.25mm 44 W/m2
09:29 46.7 °F /  8.2 °C 45.1 °F /  7.3 °C 29.19in /  988.4hPa SE 8.4mph /  13.5km/h 14mph /  22.5km/h 94% 0.02in /  0.51mm 21 W/m2
09:34 46.8 °F /  8.2 °C 45.1 °F /  7.3 °C 29.18in /  988hPa SSE 5.2mph /  8.4km/h 9mph /  14.5km/h 94% 0.02in /  0.51mm 18 W/m2
09:39 46.8 °F /  8.2 °C 45.1 °F /  7.3 °C 29.18in /  988hPa SSE 4mph /  6.4km/h 8mph /  12.9km/h 94% 0.02in /  0.51mm 21 W/m2
09:44 46.8 °F /  8.2 °C 45.1 °F /  7.3 °C 29.18in /  988hPa SSE 3.7mph /  6km/h 7mph /  11.3km/h 94% 0.02in /  0.51mm 23 W/m2
09:49 46.8 °F /  8.2 °C 45.1 °F /  7.3 °C 29.17in /  987.7hPa SE 5.4mph /  8.7km/h 9mph /  14.5km/h 94% 0.03in /  0.76mm 35 W/m2
09:54 46.9 °F /  8.3 °C 45.2 °F /  7.3 °C 29.17in /  987.7hPa SSE 4.7mph /  7.6km/h 9mph /  14.5km/h 94% 0.03in /  0.76mm 35 W/m2
09:59 47 °F /  8.3 °C 45.4 °F /  7.4 °C 29.16in /  987.4hPa SE 4.2mph /  6.8km/h 9mph /  14.5km/h 94% 0.04in /  1.02mm 39 W/m2
10:04 47.1 °F /  8.4 °C 45.5 °F /  7.5 °C 29.16in /  987.4hPa SSE 2.5mph /  4km/h 7mph /  11.3km/h 94% 0.04in /  1.02mm 46 W/m2
10:09 47.4 °F /  8.6 °C 45.8 °F /  7.7 °C 29.15in /  987hPa SE 5.8mph /  9.3km/h 9mph /  14.5km/h 94% 0.04in /  1.02mm 65 W/m2
10:14 47.7 °F /  8.7 °C 46 °F /  7.8 °C 29.15in /  987hPa SSE 4.2mph /  6.8km/h 10mph /  16.1km/h 94% 0.04in /  1.02mm 54 W/m2
10:19 47.9 °F /  8.8 °C 46.3 °F /  7.9 °C 29.15in /  987hPa South 5mph /  8km/h 11mph /  17.7km/h 94% 0.05in /  1.27mm 65 W/m2
10:24 48.3 °F /  9.1 °C 46.7 °F /  8.2 °C 29.14in /  986.7hPa SSE 6.8mph /  10.9km/h 12mph /  19.3km/h 94% 0.05in /  1.27mm 86 W/m2
10:29 48.5 °F /  9.2 °C 46.9 °F /  8.3 °C 29.13in /  986.3hPa South 3.4mph /  5.5km/h 8mph /  12.9km/h 94% 0.05in /  1.27mm 90 W/m2
10:34 48.8 °F /  9.3 °C 47.2 °F /  8.4 °C 29.13in /  986.3hPa SSW 4.4mph /  7.1km/h 9mph /  14.5km/h 94% 0.04in /  1.02mm 79 W/m2
10:39 48.9 °F /  9.4 °C 47.3 °F /  8.5 °C 29.13in /  986.3hPa SSW 2mph /  3.2km/h 7mph /  11.3km/h 94% 0.04in /  1.02mm 67 W/m2
10:44 49.4 °F /  9.7 °C 47.7 °F /  8.7 °C 29.12in /  986hPa South 5.1mph /  8.2km/h 9mph /  14.5km/h 94% 0.03in /  0.76mm 42 W/m2
10:49 49.6 °F /  9.8 °C 48 °F /  8.9 °C 29.12in /  986hPa South 5.3mph /  8.5km/h 12mph /  19.3km/h 94% 0.02in /  0.51mm 33 W/m2
10:54 49.7 °F /  9.8 °C 48.1 °F /  8.9 °C 29.11in /  985.7hPa SSW 7mph /  11.3km/h 15mph /  24.1km/h 94% 0.02in /  0.51mm 28 W/m2
10:59 49.8 °F /  9.9 °C 48.2 °F /  9 °C 29.11in /  985.7hPa SSW 4.9mph /  7.9km/h 10mph /  16.1km/h 94% 0.02in /  0.51mm 32 W/m2
11:04 49.8 °F /  9.9 °C 48.2 °F /  9 °C 29.10in /  985.3hPa SSW 5.1mph /  8.2km/h 8mph /  12.9km/h 94% 0.02in /  0.51mm 30 W/m2
11:09 49.8 °F /  9.9 °C 48.2 °F /  9 °C 29.10in /  985.3hPa SSW 6.4mph /  10.3km/h 12mph /  19.3km/h 94% 0.02in /  0.51mm 26 W/m2
11:14 49.8 °F /  9.9 °C 48.2 °F /  9 °C 29.10in /  985.3hPa SSW 3.6mph /  5.8km/h 7mph /  11.3km/h 94% 0.03in /  0.76mm 32 W/m2
11:19 49.7 °F /  9.8 °C 48 °F /  8.9 °C 29.09in /  985hPa SW 5.8mph /  9.3km/h 12mph /  19.3km/h 93.6% 0.03in /  0.76mm 33 W/m2
11:23 49.6 °F /  9.8 °C 47.7 °F /  8.7 °C 29.08in /  984.6hPa SSW 9mph /  14.5km/h 12mph /  19.3km/h 93% 0.02in /  0.51mm 53 W/m2
11:29 49.7 °F /  9.8 °C 47.8 °F /  8.8 °C 29.08in /  984.6hPa SSW 10.2mph /  16.4km/h 15mph /  24.1km/h 93% 0.02in /  0.51mm 72 W/m2
11:34 49.8 °F /  9.9 °C 47.8 °F /  8.8 °C 29.08in /  984.6hPa South 7.2mph /  11.6km/h 14mph /  22.5km/h 93% 0.02in /  0.51mm 69 W/m2
11:39 49.8 °F /  9.9 °C 47.8 °F /  8.8 °C 29.07in /  984.3hPa SSW 6.4mph /  10.3km/h 13mph /  20.9km/h 93% 0.03in /  0.76mm 65 W/m2
11:44 49.8 °F /  9.9 °C 47.8 °F /  8.8 °C 29.06in /  984hPa SSW 5.2mph /  8.4km/h 12mph /  19.3km/h 93% 0.03in /  0.76mm 62 W/m2
11:49 49.8 °F /  9.9 °C 47.7 °F /  8.7 °C 29.06in /  984hPa South 4.2mph /  6.8km/h 12mph /  19.3km/h 92.4% 0.03in /  0.76mm 70 W/m2
11:54 49.8 °F /  9.9 °C 47.7 °F /  8.7 °C 29.05in /  983.6hPa SSW 4.7mph /  7.6km/h 13mph /  20.9km/h 92% 0.03in /  0.76mm 58 W/m2
11:59 49.6 °F /  9.8 °C 47.5 °F /  8.6 °C 29.05in /  983.6hPa South 5.3mph /  8.5km/h 11mph /  17.7km/h 92% 0.03in /  0.76mm 72 W/m2
12:04 49.6 °F /  9.8 °C 47.4 °F /  8.6 °C 29.04in /  983.3hPa SSW 5.8mph /  9.3km/h 14mph /  22.5km/h 92% 0.02in /  0.51mm 95 W/m2
12:09 49.6 °F /  9.8 °C 47.3 °F /  8.5 °C 29.04in /  983.3hPa South 6.6mph /  10.6km/h 17mph /  27.4km/h 91.6% 0.02in /  0.51mm 105 W/m2
12:14 49.6 °F /  9.8 °C 47.1 °F /  8.4 °C 29.03in /  983hPa South 3.6mph /  5.8km/h 10mph /  16.1km/h 91% 0.02in /  0.51mm 111 W/m2
12:19 49.5 °F /  9.7 °C 46.9 °F /  8.3 °C 29.03in /  983hPa South 4.1mph /  6.6km/h 11mph /  17.7km/h 91% 0.02in /  0.51mm 84 W/m2
12:24 49.5 °F /  9.7 °C 46.9 °F /  8.3 °C 29.03in /  983hPa South 8.2mph /  13.2km/h 16mph /  25.7km/h 91% 0.03in /  0.76mm 91 W/m2
12:29 49.5 °F /  9.7 °C 46.9 °F /  8.3 °C 29.02in /  982.6hPa SSW 5.2mph /  8.4km/h 15mph /  24.1km/h 91% 0.03in /  0.76mm 81 W/m2
12:34 49.5 °F /  9.7 °C 46.9 °F /  8.3 °C 29.02in /  982.6hPa South 4.7mph /  7.6km/h 13mph /  20.9km/h 91% 0.03in /  0.76mm 83 W/m2
12:39 49.4 °F /  9.7 °C 46.8 °F /  8.2 °C 29.01in /  982.3hPa South 4mph /  6.4km/h 7mph /  11.3km/h 91% 0.03in /  0.76mm 84 W/m2
12:44 49.3 °F /  9.6 °C 46.8 °F /  8.2 °C 29.01in /  982.3hPa South 4mph /  6.4km/h 9mph /  14.5km/h 91% 0.02in /  0.51mm 81 W/m2
12:49 49.3 °F /  9.6 °C 46.8 °F /  8.2 °C 29.00in /  981.9hPa South 7mph /  11.3km/h 13mph /  20.9km/h 91% 0.02in /  0.51mm 72 W/m2
12:54 49.3 °F /  9.6 °C 46.8 °F /  8.2 °C 29.00in /  981.9hPa South 4mph /  6.4km/h 12mph /  19.3km/h 91% 0.02in /  0.51mm 49 W/m2
12:59 49.3 °F /  9.6 °C 46.6 °F /  8.1 °C 28.99in /  981.6hPa South 4.5mph /  7.2km/h 11mph /  17.7km/h 90.6% 0.02in /  0.51mm 53 W/m2
13:04 49.3 °F /  9.6 °C 46.8 °F /  8.2 °C 28.99in /  981.6hPa South 2.7mph /  4.3km/h 11mph /  17.7km/h 91% 0.02in /  0.51mm 51 W/m2
13:09 49.3 °F /  9.6 °C 46.8 °F /  8.2 °C 28.98in /  981.3hPa SSE 5.6mph /  9km/h 11mph /  17.7km/h 91% 0.02in /  0.51mm 44 W/m2
13:14 49.3 °F /  9.6 °C 46.8 °F /  8.2 °C 28.98in /  981.3hPa SSE 3.1mph /  5km/h 9mph /  14.5km/h 91% 0.02in /  0.51mm 30 W/m2
13:19 49.3 °F /  9.6 °C 46.8 °F /  8.2 °C 28.97in /  980.9hPa South 6.7mph /  10.8km/h 11mph /  17.7km/h 91% 0.02in /  0.51mm 26 W/m2
13:24 49.3 °F /  9.6 °C 46.8 °F /  8.2 °C 28.97in /  980.9hPa South 5.3mph /  8.5km/h 9mph /  14.5km/h 91% 0.02in /  0.51mm 23 W/m2
13:29 49.3 °F /  9.6 °C 46.8 °F /  8.2 °C 28.97in /  980.9hPa South 4.4mph /  7.1km/h 10mph /  16.1km/h 91% 0.02in /  0.51mm 30 W/m2
13:34 49.3 °F /  9.6 °C 46.8 °F /  8.2 °C 28.96in /  980.6hPa SSE 4.4mph /  7.1km/h 9mph /  14.5km/h 91% 0.03in /  0.76mm 28 W/m2
13:39 49.3 °F /  9.6 °C 46.9 °F /  8.3 °C 28.96in /  980.6hPa South 2.8mph /  4.5km/h 10mph /  16.1km/h 91.2% 0.04in /  1.02mm 19 W/m2
13:44 49.3 °F /  9.6 °C 47.1 °F /  8.4 °C 28.95in /  980.2hPa South 3.3mph /  5.3km/h 9mph /  14.5km/h 92% 0.05in /  1.27mm 14 W/m2
13:49 49.3 °F /  9.6 °C 47.1 °F /  8.4 °C 28.95in /  980.2hPa South 2.5mph /  4km/h 9mph /  14.5km/h 92% 0.07in /  1.78mm 11 W/m2
13:54 49.3 °F /  9.6 °C 47.1 °F /  8.4 °C 28.95in /  980.2hPa SSW 1.7mph /  2.7km/h 6mph /  9.7km/h 92% 0.08in /  2.03mm 11 W/m2
13:59 49.3 °F /  9.6 °C 47.1 °F /  8.4 °C 28.95in /  980.2hPa WSW 3.2mph /  5.1km/h 7mph /  11.3km/h 92% 0.13in /  3.3mm 11 W/m2
14:04 49.2 °F /  9.6 °C 47 °F /  8.3 °C 28.95in /  980.2hPa SW 3.5mph /  5.6km/h 7mph /  11.3km/h 92% 0.15in /  3.81mm 19 W/m2
14:09 49.3 °F /  9.6 °C 47.1 °F /  8.4 °C 28.94in /  979.9hPa SW 5.7mph /  9.2km/h 10mph /  16.1km/h 92% 0.16in /  4.06mm 21 W/m2
14:14 49.3 °F /  9.6 °C 47.3 °F /  8.5 °C 28.94in /  979.9hPa SW 2.8mph /  4.5km/h 9mph /  14.5km/h 93% 0.16in /  4.06mm 23 W/m2
14:19 49.3 °F /  9.6 °C 47.3 °F /  8.5 °C 28.94in /  979.9hPa SW 4.7mph /  7.6km/h 9mph /  14.5km/h 93% 0.16in /  4.06mm 28 W/m2
14:24 49.4 °F /  9.7 °C 47.4 °F /  8.6 °C 28.94in /  979.9hPa SW 6.8mph /  10.9km/h 14mph /  22.5km/h 93% 0.15in /  3.81mm 39 W/m2
14:29 49.3 °F /  9.6 °C 47.3 °F /  8.5 °C 28.94in /  979.9hPa WSW 11.5mph /  18.5km/h 20mph /  32.2km/h 93% 0.15in /  3.81mm 53 W/m2
14:34 49.2 °F /  9.6 °C 47.2 °F /  8.4 °C 28.94in /  979.9hPa WSW 9.2mph /  14.8km/h 20mph /  32.2km/h 93% 0.14in /  3.56mm 53 W/m2
14:39 48.9 °F /  9.4 °C 46.9 °F /  8.3 °C 28.94in /  979.9hPa SW 13.8mph /  22.2km/h 20mph /  32.2km/h 93% 0.13in /  3.3mm 33 W/m2
14:44 48.7 °F /  9.3 °C 46.8 °F /  8.2 °C 28.94in /  979.9hPa West 11.2mph /  18km/h 20mph /  32.2km/h 93% 0.12in /  3.05mm 25 W/m2
14:49 48.5 °F /  9.2 °C 46.5 °F /  8.1 °C 28.93in /  979.6hPa West 9.2mph /  14.8km/h 15mph /  24.1km/h 92.8% 0.11in /  2.79mm 28 W/m2
14:54 48.3 °F /  9.1 °C 46.3 °F /  7.9 °C 28.93in /  979.6hPa West 8.6mph /  13.8km/h 15mph /  24.1km/h 93% 0.09in /  2.29mm 19 W/m2
14:59 48.1 °F /  8.9 °C 46.1 °F /  7.8 °C 28.93in /  979.6hPa WSW 7.4mph /  11.9km/h 13mph /  20.9km/h 93% 0.06in /  1.52mm 21 W/m2
15:04 48 °F /  8.9 °C 46 °F /  7.8 °C 28.93in /  979.6hPa WSW 7.5mph /  12.1km/h 18mph /  29km/h 93% 0.02in /  0.51mm 19 W/m2
15:09 48 °F /  8.9 °C 46 °F /  7.8 °C 28.93in /  979.6hPa West 9.2mph /  14.8km/h 16mph /  25.7km/h 93% 0.01in /  0.25mm 54 W/m2
15:14 47.8 °F /  8.8 °C 45.9 °F /  7.7 °C 28.93in /  979.6hPa West 10.6mph /  17.1km/h 17mph /  27.4km/h 93% 0.01in /  0.25mm 76 W/m2
15:19 47.8 °F /  8.8 °C 45.9 °F /  7.7 °C 28.93in /  979.6hPa West 16.5mph /  26.6km/h 20mph /  32.2km/h 93% 0.01in /  0.25mm 90 W/m2
15:24 47.9 °F /  8.8 °C 46 °F /  7.8 °C 28.93in /  979.6hPa WNW 6.4mph /  10.3km/h 20mph /  32.2km/h 93% 0.01in /  0.25mm 125 W/m2
15:29 48 °F /  8.9 °C 46 °F /  7.8 °C 28.93in /  979.6hPa West 10.4mph /  16.7km/h 15mph /  24.1km/h 93% 0.01in /  0.25mm 114 W/m2
15:34 48 °F /  8.9 °C 46 °F /  7.8 °C 28.93in /  979.6hPa West 10mph /  16.1km/h 15mph /  24.1km/h 92.6% 0.01in /  0.25mm 67 W/m2
15:39 48 °F /  8.9 °C 45.9 °F /  7.7 °C 28.93in /  979.6hPa West 9.6mph /  15.4km/h 16mph /  25.7km/h 92% 0.01in /  0.25mm 46 W/m2
15:44 48 °F /  8.9 °C 45.9 °F /  7.7 °C 28.93in /  979.6hPa West 12.8mph /  20.6km/h 20mph /  32.2km/h 92% 0.01in /  0.25mm 35 W/m2
15:49 47.9 °F /  8.8 °C 45.8 °F /  7.7 °C 28.93in /  979.6hPa West 8.8mph /  14.2km/h 14mph /  22.5km/h 92% 0.01in /  0.25mm 16 W/m2
15:54 47.8 °F /  8.8 °C 45.7 °F /  7.6 °C 28.93in /  979.6hPa West 12mph /  19.3km/h 17mph /  27.4km/h 92% 0.01in /  0.25mm 9 W/m2
15:59 47.8 °F /  8.8 °C 45.7 °F /  7.6 °C 28.93in /  979.6hPa West 11.8mph /  19km/h 18mph /  29km/h 92% 0.01in /  0.25mm 7 W/m2
16:04 47.8 °F /  8.8 °C 45.6 °F /  7.6 °C 28.93in /  979.6hPa West 7.9mph /  12.7km/h 17mph /  27.4km/h 91.8% 0.01in /  0.25mm 5 W/m2
16:09 47.7 °F /  8.7 °C 45.1 °F /  7.3 °C 28.93in /  979.6hPa West 6.6mph /  10.6km/h 13mph /  20.9km/h 91% 0.01in /  0.25mm 0 W/m2
16:14 47.7 °F /  8.7 °C 45.1 °F /  7.3 °C 28.93in /  979.6hPa WSW 7.8mph /  12.6km/h 12mph /  19.3km/h 91% 0.01in /  0.25mm 0 W/m2
16:19 47.5 °F /  8.6 °C 45 °F /  7.2 °C 28.93in /  979.6hPa West 7.4mph /  11.9km/h 13mph /  20.9km/h 91% 0.01in /  0.25mm 0 W/m2
16:24 47.5 °F /  8.6 °C 45 °F /  7.2 °C 28.93in /  979.6hPa West 8.5mph /  13.7km/h 16mph /  25.7km/h 91% 0.00in /  0mm 0 W/m2
16:29 47.3 °F /  8.5 °C 44.8 °F /  7.1 °C 28.93in /  979.6hPa West 7.8mph /  12.6km/h 16mph /  25.7km/h 91% 0.00in /  0mm 0 W/m2
16:34 47.3 °F /  8.5 °C 44.8 °F /  7.1 °C 28.93in /  979.6hPa West 6.6mph /  10.6km/h 14mph /  22.5km/h 91% 0.00in /  0mm 0 W/m2
16:39 47.5 °F /  8.6 °C 45 °F /  7.2 °C 28.93in /  979.6hPa West 8.8mph /  14.2km/h 15mph /  24.1km/h 91% 0.00in /  0mm 0 W/m2
16:44 47.5 °F /  8.6 °C 45 °F /  7.2 °C 28.93in /  979.6hPa West 6.7mph /  10.8km/h 13mph /  20.9km/h 91% 0.00in /  0mm 0 W/m2
16:48 47.6 °F /  8.7 °C 45.1 °F /  7.3 °C 28.93in /  979.6hPa West 9mph /  14.5km/h 14mph /  22.5km/h 91% 0.00in /  0mm 0 W/m2
16:54 47.7 °F /  8.7 °C 45.1 °F /  7.3 °C 28.93in /  979.6hPa West 8.8mph /  14.2km/h 17mph /  27.4km/h 91% 0.00in /  0mm 0 W/m2
16:59 47.8 °F /  8.8 °C 45.3 °F /  7.4 °C 28.93in /  979.6hPa West 5.8mph /  9.3km/h 15mph /  24.1km/h 91% 0.00in /  0mm 0 W/m2
17:03 47.8 °F /  8.8 °C 45.3 °F /  7.4 °C 28.92in /  979.2hPa WSW 7.5mph /  12.1km/h 14mph /  22.5km/h 91% 0.00in /  0mm 0 W/m2
17:14 48 °F /  8.9 °C 45.5 °F /  7.5 °C 28.92in /  979.2hPa West 5.7mph /  9.2km/h 15mph /  24.1km/h 91% 0.00in /  0mm 0 W/m2
17:19 48 °F /  8.9 °C 45.5 °F /  7.5 °C 28.92in /  979.2hPa West 9.2mph /  14.8km/h 16mph /  25.7km/h 91% 0.00in /  0mm 0 W/m2
17:24 48 °F /  8.9 °C 45.5 °F /  7.5 °C 28.92in /  979.2hPa West 6.1mph /  9.8km/h 14mph /  22.5km/h 91% 0.00in /  0mm 0 W/m2
17:28 48.2 °F /  9 °C 45.7 °F /  7.6 °C 28.92in /  979.2hPa WSW 11mph /  17.7km/h 19mph /  30.6km/h 91% 0.00in /  0mm 0 W/m2
17:34 48.3 °F /  9.1 °C 45.8 °F /  7.7 °C 28.91in /  978.9hPa WSW 6.4mph /  10.3km/h 19mph /  30.6km/h 91% 0.00in /  0mm 0 W/m2
17:39 48.3 °F /  9.1 °C 45.8 °F /  7.7 °C 28.91in /  978.9hPa West 6.8mph /  10.9km/h 16mph /  25.7km/h 91% 0.00in /  0mm 0 W/m2
17:44 48.2 °F /  9 °C 45.5 °F /  7.5 °C 28.91in /  978.9hPa West 8.2mph /  13.2km/h 18mph /  29km/h 90.4% 0.00in /  0mm 0 W/m2
17:49 48.4 °F /  9.1 °C 45.5 °F /  7.5 °C 28.91in /  978.9hPa West 11.2mph /  18km/h 20mph /  32.2km/h 90% 0.00in /  0mm 0 W/m2
17:54 48.4 °F /  9.1 °C 45.5 °F /  7.5 °C 28.91in /  978.9hPa West 7.5mph /  12.1km/h 20mph /  32.2km/h 90% 0.00in /  0mm 0 W/m2
17:59 48.4 °F /  9.1 °C 45.5 °F /  7.5 °C 28.91in /  978.9hPa West 9.4mph /  15.1km/h 18mph /  29km/h 90% 0.00in /  0mm 0 W/m2
18:04 48.4 °F /  9.1 °C 45.5 °F /  7.5 °C 28.90in /  978.6hPa WSW 9mph /  14.5km/h 16mph /  25.7km/h 90% 0.00in /  0mm 0 W/m2
18:09 48.4 °F /  9.1 °C 45.5 °F /  7.5 °C 28.90in /  978.6hPa West 7.4mph /  11.9km/h 15mph /  24.1km/h 90% 0.00in /  0mm 0 W/m2
18:14 48.4 °F /  9.1 °C 45.5 °F /  7.5 °C 28.90in /  978.6hPa West 10.8mph /  17.4km/h 19mph /  30.6km/h 90% 0.00in /  0mm 0 W/m2
18:19 48.4 °F /  9.1 °C 45.4 °F /  7.4 °C 28.90in /  978.6hPa West 7.2mph /  11.6km/h 14mph /  22.5km/h 89.8% 0.00in /  0mm 0 W/m2
18:24 48.3 °F /  9.1 °C 45.4 °F /  7.4 °C 28.90in /  978.6hPa West 9mph /  14.5km/h 18mph /  29km/h 90% 0.00in /  0mm 0 W/m2
18:29 48.4 °F /  9.1 °C 45.5 °F /  7.5 °C 28.90in /  978.6hPa West 4.2mph /  6.8km/h 18mph /  29km/h 90% 0.00in /  0mm 0 W/m2
18:34 48.4 °F /  9.1 °C 45.5 °F /  7.5 °C 28.90in /  978.6hPa West 6.4mph /  10.3km/h 12mph /  19.3km/h 90% 0.00in /  0mm 0 W/m2
18:39 48.4 °F /  9.1 °C 45.5 °F /  7.5 °C 28.89in /  978.2hPa WSW 5mph /  8km/h 14mph /  22.5km/h 90% 0.00in /  0mm 0 W/m2
18:44 48.4 °F /  9.1 °C 45.5 °F /  7.5 °C 28.89in /  978.2hPa WSW 4.9mph /  7.9km/h 14mph /  22.5km/h 90% 0.00in /  0mm 0 W/m2
18:49 48.4 °F /  9.1 °C 45.5 °F /  7.5 °C 28.89in /  978.2hPa WSW 6.4mph /  10.3km/h 10mph /  16.1km/h 90% 0.00in /  0mm 0 W/m2
18:54 48.4 °F /  9.1 °C 45.5 °F /  7.5 °C 28.88in /  977.9hPa West 7mph /  11.3km/h 12mph /  19.3km/h 90% 0.00in /  0mm 0 W/m2
18:59 48.3 °F /  9.1 °C 45.4 °F /  7.4 °C 28.88in /  977.9hPa WSW 5.9mph /  9.5km/h 12mph /  19.3km/h 90% 0.00in /  0mm 0 W/m2
19:04 48.3 °F /  9.1 °C 45.2 °F /  7.3 °C 28.87in /  977.5hPa WSW 3.5mph /  5.6km/h 12mph /  19.3km/h 89% 0.00in /  0mm 0 W/m2
19:09 48.2 °F /  9 °C 45.1 °F /  7.3 °C 28.87in /  977.5hPa WSW 3.5mph /  5.6km/h 9mph /  14.5km/h 89% 0.00in /  0mm 0 W/m2
19:14 48.1 °F /  8.9 °C 45 °F /  7.2 °C 28.87in /  977.5hPa West 3.6mph /  5.8km/h 9mph /  14.5km/h 89% 0.00in /  0mm 0 W/m2
19:19 48.1 °F /  8.9 °C 45.1 °F /  7.3 °C 28.87in /  977.5hPa WSW 4.7mph /  7.6km/h 9mph /  14.5km/h 89% 0.00in /  0mm 0 W/m2
19:24 48.1 °F /  8.9 °C 45 °F /  7.2 °C 28.87in /  977.5hPa WSW 5.3mph /  8.5km/h 14mph /  22.5km/h 89% 0.00in /  0mm 0 W/m2
19:29 48.2 °F /  9 °C 45.1 °F /  7.3 °C 28.87in /  977.5hPa WSW 7mph /  11.3km/h 12mph /  19.3km/h 89% 0.00in /  0mm 0 W/m2
19:34 48 °F /  8.9 °C 45 °F /  7.2 °C 28.87in /  977.5hPa WSW 5mph /  8km/h 9mph /  14.5km/h 89% 0.00in /  0mm 0 W/m2
19:39 48 °F /  8.9 °C 45.1 °F /  7.3 °C 28.86in /  977.2hPa WSW 3.4mph /  5.5km/h 10mph /  16.1km/h 89.6% 0.00in /  0mm 0 W/m2
19:44 47.8 °F /  8.8 °C 45 °F /  7.2 °C 28.86in /  977.2hPa WSW 5.4mph /  8.7km/h 11mph /  17.7km/h 90% 0.00in /  0mm 0 W/m2
19:49 47.7 °F /  8.7 °C 44.9 °F /  7.2 °C 28.85in /  976.9hPa SW 5mph /  8km/h 11mph /  17.7km/h 89.8% 0.00in /  0mm 0 W/m2
19:54 47.7 °F /  8.7 °C 44.6 °F /  7 °C 28.85in /  976.9hPa SW 4.4mph /  7.1km/h 9mph /  14.5km/h 89% 0.00in /  0mm 0 W/m2
19:59 47.5 °F /  8.6 °C 44.4 °F /  6.9 °C 28.84in /  976.5hPa SW 1.4mph /  2.3km/h 8mph /  12.9km/h 89% 0.00in /  0mm 0 W/m2
20:04 47.5 °F /  8.6 °C 44.4 °F /  6.9 °C 28.84in /  976.5hPa SW 5.2mph /  8.4km/h 11mph /  17.7km/h 89% 0.00in /  0mm 0 W/m2
20:09 47.4 °F /  8.6 °C 44.3 °F /  6.8 °C 28.83in /  976.2hPa SW 4.4mph /  7.1km/h 11mph /  17.7km/h 89% 0.00in /  0mm 0 W/m2
20:14 47.5 °F /  8.6 °C 44.4 °F /  6.9 °C 28.83in /  976.2hPa SW 7.4mph /  11.9km/h 12mph /  19.3km/h 89% 0.00in /  0mm 0 W/m2
20:19 47.5 °F /  8.6 °C 44.4 °F /  6.9 °C 28.82in /  975.8hPa SW 6.2mph /  10km/h 11mph /  17.7km/h 89% 0.00in /  0mm 0 W/m2
20:23 47.5 °F /  8.6 °C 44.4 °F /  6.9 °C 28.82in /  975.8hPa SW 6.7mph /  10.8km/h 11mph /  17.7km/h 89% 0.00in /  0mm 0 W/m2
20:29 47.5 °F /  8.6 °C 44.4 °F /  6.9 °C 28.82in /  975.8hPa SSW 5mph /  8km/h 11mph /  17.7km/h 89% 0.00in /  0mm 0 W/m2
20:34 47.5 °F /  8.6 °C 44.4 °F /  6.9 °C 28.81in /  975.5hPa SW 7mph /  11.3km/h 11mph /  17.7km/h 89% 0.00in /  0mm 0 W/m2
20:39 47.5 °F /  8.6 °C 44.8 °F /  7.1 °C 28.81in /  975.5hPa SW 5.6mph /  9km/h 9mph /  14.5km/h 90% 0.01in /  0.25mm 0 W/m2
20:44 47.4 °F /  8.6 °C 44.7 °F /  7.1 °C 28.80in /  975.2hPa SW 7.8mph /  12.6km/h 11mph /  17.7km/h 90% 0.02in /  0.51mm 0 W/m2
20:49 47.3 °F /  8.5 °C 44.6 °F /  7 °C 28.80in /  975.2hPa SW 4.5mph /  7.2km/h 11mph /  17.7km/h 90% 0.02in /  0.51mm 0 W/m2
20:54 47.1 °F /  8.4 °C 44.4 °F /  6.9 °C 28.79in /  974.8hPa SW 6.8mph /  10.9km/h 11mph /  17.7km/h 90% 0.02in /  0.51mm 0 W/m2
20:59 47 °F /  8.3 °C 44.3 °F /  6.8 °C 28.79in /  974.8hPa SW 5.8mph /  9.3km/h 12mph /  19.3km/h 90% 0.05in /  1.27mm 0 W/m2
21:04 46.8 °F /  8.2 °C 44.2 °F /  6.8 °C 28.78in /  974.5hPa WSW 4.7mph /  7.6km/h 12mph /  19.3km/h 90.8% 0.06in /  1.52mm 0 W/m2
21:09 46.7 °F /  8.2 °C 44.1 °F /  6.7 °C 28.78in /  974.5hPa SW 2.9mph /  4.7km/h 7mph /  11.3km/h 90.6% 0.06in /  1.52mm 0 W/m2
21:14 46.5 °F /  8.1 °C 43.8 °F /  6.6 °C 28.78in /  974.5hPa WSW 4.4mph /  7.1km/h 9mph /  14.5km/h 90% 0.06in /  1.52mm 0 W/m2
21:19 46.2 °F /  7.9 °C 43.7 °F /  6.5 °C 28.78in /  974.5hPa SW 4.5mph /  7.2km/h 9mph /  14.5km/h 91% 0.09in /  2.29mm 0 W/m2
21:23 46.2 °F /  7.9 °C 43.7 °F /  6.5 °C 28.77in /  974.2hPa SW 6.7mph /  10.8km/h 10mph /  16.1km/h 91% 0.10in /  2.54mm 0 W/m2
21:29 46.1 °F /  7.8 °C 43.6 °F /  6.4 °C 28.77in /  974.2hPa SW 2.5mph /  4km/h 7mph /  11.3km/h 91% 0.12in /  3.05mm 0 W/m2
21:34 46 °F /  7.8 °C 43.5 °F /  6.4 °C 28.77in /  974.2hPa SW 4.2mph /  6.8km/h 9mph /  14.5km/h 91% 0.14in /  3.56mm 0 W/m2
21:39 46 °F /  7.8 °C 43.5 °F /  6.4 °C 28.76in /  973.8hPa WSW 5.9mph /  9.5km/h 17mph /  27.4km/h 91% 0.16in /  4.06mm 0 W/m2
21:44 46 °F /  7.8 °C 43.5 °F /  6.4 °C 28.76in /  973.8hPa WSW 6.8mph /  10.9km/h 14mph /  22.5km/h 91% 0.17in /  4.32mm 0 W/m2
21:49 46 °F /  7.8 °C 43.5 °F /  6.4 °C 28.75in /  973.5hPa West 5.2mph /  8.4km/h 11mph /  17.7km/h 91% 0.17in /  4.32mm 0 W/m2
21:54 46 °F /  7.8 °C 43.5 °F /  6.4 °C 28.74in /  973.1hPa WSW 6mph /  9.7km/h 11mph /  17.7km/h 91% 0.17in /  4.32mm 0 W/m2
21:59 46.2 °F /  7.9 °C 43.7 °F /  6.5 °C 28.74in /  973.1hPa WSW 5.9mph /  9.5km/h 12mph /  19.3km/h 91% 0.16in /  4.06mm 0 W/m2
22:04 46.2 °F /  7.9 °C 43.9 °F /  6.6 °C 28.73in /  972.8hPa WSW 5.2mph /  8.4km/h 12mph /  19.3km/h 91.4% 0.15in /  3.81mm 0 W/m2
22:09 46.4 °F /  8 °C 44.3 °F /  6.8 °C 28.72in /  972.5hPa West 6.2mph /  10km/h 12mph /  19.3km/h 92% 0.15in /  3.81mm 0 W/m2
22:14 46.8 °F /  8.2 °C 44.6 °F /  7 °C 28.73in /  972.8hPa West 6.8mph /  10.9km/h 15mph /  24.1km/h 92% 0.14in /  3.56mm 0 W/m2
22:19 46.6 °F /  8.1 °C 44.5 °F /  6.9 °C 28.73in /  972.8hPa NW 11.6mph /  18.7km/h 30mph /  48.3km/h 92% 0.18in /  4.57mm 0 W/m2
22:24 46.1 °F /  7.8 °C 44 °F /  6.7 °C 28.73in /  972.8hPa WNW 5.8mph /  9.3km/h 30mph /  48.3km/h 92% 0.19in /  4.83mm 0 W/m2
22:29 46 °F /  7.8 °C 43.8 °F /  6.6 °C 28.73in /  972.8hPa West 9.2mph /  14.8km/h 14mph /  22.5km/h 92% 0.17in /  4.32mm 0 W/m2
22:34 46 °F /  7.8 °C 43.9 °F /  6.6 °C 28.73in /  972.8hPa West 5.3mph /  8.5km/h 14mph /  22.5km/h 92% 0.15in /  3.81mm 0 W/m2
22:39 46 °F /  7.8 °C 43.9 °F /  6.6 °C 28.72in /  972.5hPa WNW 5.4mph /  8.7km/h 11mph /  17.7km/h 92% 0.13in /  3.3mm 0 W/m2
22:44 46.1 °F /  7.8 °C 44 °F /  6.7 °C 28.72in /  972.5hPa West 7.4mph /  11.9km/h 14mph /  22.5km/h 92% 0.10in /  2.54mm 0 W/m2
22:49 46.2 °F /  7.9 °C 44.1 °F /  6.7 °C 28.72in /  972.5hPa WNW 9.6mph /  15.4km/h 19mph /  30.6km/h 92% 0.09in /  2.29mm 0 W/m2
22:54 46.2 °F /  7.9 °C 44.1 °F /  6.7 °C 28.72in /  972.5hPa West 10.6mph /  17.1km/h 19mph /  30.6km/h 92% 0.09in /  2.29mm 0 W/m2
22:59 46.5 °F /  8.1 °C 44.3 °F /  6.8 °C 28.72in /  972.5hPa West 13.5mph /  21.7km/h 22mph /  35.4km/h 92% 0.09in /  2.29mm 0 W/m2
23:04 46.6 °F /  8.1 °C 44.3 °F /  6.8 °C 28.72in /  972.5hPa West 19.4mph /  31.2km/h 25mph /  40.2km/h 91.8% 0.09in /  2.29mm 0 W/m2
23:09 46.6 °F /  8.1 °C 44.1 °F /  6.7 °C 28.72in /  972.5hPa WNW 10.8mph /  17.4km/h 16mph /  25.7km/h 90.8% 0.09in /  2.29mm 0 W/m2
23:14 46.6 °F /  8.1 °C 43.9 °F /  6.6 °C 28.72in /  972.5hPa WNW 10.2mph /  16.4km/h 18mph /  29km/h 90.2% 0.09in /  2.29mm 0 W/m2
23:19 46.6 °F /  8.1 °C 43.9 °F /  6.6 °C 28.72in /  972.5hPa West 11.6mph /  18.7km/h 19mph /  30.6km/h 90% 0.06in /  1.52mm 0 W/m2
23:24 46.6 °F /  8.1 °C 43.9 °F /  6.6 °C 28.73in /  972.8hPa WNW 10.8mph /  17.4km/h 19mph /  30.6km/h 90% 0.02in /  0.51mm 0 W/m2
23:29 46.2 °F /  7.9 °C 43.5 °F /  6.4 °C 28.73in /  972.8hPa West 10.8mph /  17.4km/h 18mph /  29km/h 90% 0.02in /  0.51mm 0 W/m2
23:34 46.1 °F /  7.8 °C 43.4 °F /  6.3 °C 28.73in /  972.8hPa West 10.8mph /  17.4km/h 18mph /  29km/h 90% 0.02in /  0.51mm 0 W/m2
23:39 46 °F /  7.8 °C 43.3 °F /  6.3 °C 28.73in /  972.8hPa West 9.8mph /  15.8km/h 20mph /  32.2km/h 90% 0.02in /  0.51mm 0 W/m2
23:44 46 °F /  7.8 °C 43.3 °F /  6.3 °C 28.73in /  972.8hPa West 9.2mph /  14.8km/h 15mph /  24.1km/h 90% 0.02in /  0.51mm 0 W/m2
23:49 46 °F /  7.8 °C 43.3 °F /  6.3 °C 28.73in /  972.8hPa West 7mph /  11.3km/h 15mph /  24.1km/h 90% 0.02in /  0.51mm 0 W/m2
23:54 46 °F /  7.8 °C 43.3 °F /  6.3 °C 28.73in /  972.8hPa WNW 7.8mph /  12.6km/h 15mph /  24.1km/h 90% 0.02in /  0.51mm 0 W/m2
23:59 46 °F /  7.8 °C 43.3 °F /  6.3 °C 28.73in /  972.8hPa West 9.9mph /  15.9km/h 22mph /  35.4km/h 90% 0.02in /  0.51mm 0 W/m2
Bath Spa Weather
Compliments of Weather Underground - 2 mb